Time;durP1;ratioP1;P1;durP2;ratioP2;P2;SDS_P1;SDS_P2;PMS_P1;PMS_P2;Temp;Humidity;BMP_temperature;BMP_pressure;BME280_temperature;BME280_humidity;BME280_pressure;Samples;Min_cycle;Max_cycle;Signal;HPM_P1;HPM_P2
2023/10/27 00:10:53;;;;;;;8.27;1.93;;;16.30;99.90;;;;;;5004908;28;20225;-70
2023/10/27 00:13:20;;;;;;;14.47;1.90;;;16.30;99.90;;;;;;5011731;28;20221;-69
2023/10/27 00:15:47;;;;;;;9.27;2.00;;;16.80;99.90;;;;;;5028197;28;20177;-69
2023/10/27 00:18:15;;;;;;;5.40;1.83;;;17.30;99.90;;;;;;5028087;28;20185;-70
2023/10/27 00:20:42;;;;;;;7.80;1.67;;;17.90;99.90;;;;;;5011847;28;20205;-73
2023/10/27 00:23:09;;;;;;;10.63;2.00;;;18.40;99.90;;;;;;5011816;28;20689;-70
2023/10/27 00:25:37;;;;;;;8.00;1.63;;;18.50;99.90;;;;;;5011392;28;20710;-69
2023/10/27 00:28:04;;;;;;;7.63;1.90;;;18.40;99.90;;;;;;5011909;28;20631;-70
2023/10/27 00:30:31;;;;;;;4.10;1.60;;;18.30;99.90;;;;;;5016069;28;20173;-70
2023/10/27 00:32:59;;;;;;;5.73;1.50;;;18.50;99.90;;;;;;5031148;28;20189;-70
2023/10/27 00:35:26;;;;;;;5.33;1.63;;;18.70;99.90;;;;;;5031763;28;20254;-69
2023/10/27 00:37:53;;;;;;;7.47;1.63;;;19.00;99.90;;;;;;5031594;28;20634;-71
2023/10/27 00:40:21;;;;;;;10.77;1.53;;;18.80;99.90;;;;;;5032593;28;20585;-71
2023/10/27 00:42:48;;;;;;;3.30;1.40;;;19.00;99.90;;;;;;5033297;28;20673;-70
2023/10/27 00:45:16;;;;;;;9.37;1.90;;;19.50;99.90;;;;;;5035957;28;20248;-73
2023/10/27 00:47:43;;;;;;;9.70;1.77;;;20.10;99.90;;;;;;5035842;28;20195;-72
2023/10/27 00:50:11;;;;;;;5.10;1.53;;;21.10;99.90;;;;;;5035958;28;20175;-72
2023/10/27 00:52:38;;;;;;;5.47;1.43;;;21.60;99.90;;;;;;5035895;28;20174;-73
2023/10/27 00:55:06;;;;;;;7.17;1.30;;;21.40;99.90;;;;;;5035918;28;20237;-71
2023/10/27 00:57:36;;;;;;;3.07;1.37;;;21.40;99.90;;;;;;5035976;28;20182;-72
2023/10/27 01:00:07;;;;;;;4.27;1.60;;;21.40;99.90;;;;;;5035709;28;20621;-72
2023/10/27 01:02:35;;;;;;;4.33;1.60;;;21.40;99.90;;;;;;5035727;28;20213;-72
2023/10/27 01:05:02;;;;;;;4.53;1.40;;;21.40;99.90;;;;;;5035763;28;20184;-73
2023/10/27 01:07:29;;;;;;;6.57;1.50;;;;;;;;;;5027887;28;20177;-74
2023/10/27 01:09:56;;;;;;;6.57;1.73;;;20.70;99.90;;;;;;5015885;28;20284;-71
2023/10/27 01:12:24;;;;;;;6.40;1.63;;;20.10;99.90;;;;;;5015968;28;20302;-72
2023/10/27 01:14:51;;;;;;;7.20;2.20;;;19.30;99.90;;;;;;5014344;28;20274;-69
2023/10/27 01:17:19;;;;;;;12.10;3.00;;;18.30;99.90;;;;;;5015758;28;20611;-71
2023/10/27 01:23:08;;;;;;;5.20;1.90;;;16.20;99.90;;;;;;5014956;28;20204;-68
2023/10/27 01:25:35;;;;;;;8.23;2.60;;;15.90;99.90;;;;;;5015744;28;20177;-70
2023/10/27 01:28:03;;;;;;;8.03;2.10;;;16.00;99.90;;;;;;5015573;28;20177;-71
2023/10/27 01:30:30;;;;;;;7.17;1.97;;;16.40;99.90;;;;;;5015224;28;20209;-69
2023/10/27 01:32:57;;;;;;;9.63;1.80;;;16.80;99.90;;;;;;4972172;28;20285;-71
2023/10/27 01:35:25;;;;;;;9.47;2.53;;;17.10;99.90;;;;;;5012462;28;20198;-72
2023/10/27 01:37:52;;;;;;;5.47;1.47;;;18.10;99.90;;;;;;5015980;28;20259;-69
2023/10/27 01:40:19;;;;;;;7.47;2.23;;;18.90;99.90;;;;;;5013613;28;20674;-68
2023/10/27 01:42:47;;;;;;;6.07;1.57;;;20.00;99.90;;;;;;5013696;28;20293;-68
2023/10/27 01:48:36;;;;;;;9.83;1.90;;;20.60;99.90;;;;;;5258428;22;20669;-73
2023/10/27 01:51:03;;;;;;;5.47;1.50;;;20.10;99.90;;;;;;4986102;28;20310;-73
2023/10/27 01:53:31;;;;;;;11.07;1.70;;;19.70;99.90;;;;;;4993650;28;20190;-72
2023/10/27 01:55:59;;;;;;;6.50;1.53;;;19.70;99.90;;;;;;4990040;28;20210;-73
2023/10/27 01:58:28;;;;;;;5.93;1.70;;;19.80;99.90;;;;;;4993646;28;20654;-69
2023/10/27 02:00:55;;;;;;;3.27;1.30;;;20.50;99.90;;;;;;4993428;28;20710;-69
2023/10/27 02:03:22;;;;;;;5.33;1.70;;;20.50;99.90;;;;;;4993962;28;20281;-69
2023/10/27 02:05:50;;;;;;;5.57;1.37;;;20.00;99.90;;;;;;4992772;28;20674;-72
2023/10/27 02:08:18;;;;;;;6.30;1.27;;;19.20;99.90;;;;;;4993815;28;20190;-75
2023/10/27 02:10:45;;;;;;;8.33;1.80;;;18.40;99.90;;;;;;4993648;28;20185;-73
2023/10/27 02:13:13;;;;;;;10.27;1.73;;;17.80;99.90;;;;;;4993473;28;20186;-70
2023/10/27 02:15:40;;;;;;;7.57;1.80;;;17.20;99.90;;;;;;5002161;28;20182;-72
2023/10/27 02:18:07;;;;;;;6.53;1.63;;;16.80;99.90;;;;;;5001500;28;20738;-70
2023/10/27 02:20:35;;;;;;;7.27;1.37;;;16.60;99.90;;;;;;4993149;28;20218;-72
2023/10/27 02:23:02;;;;;;;5.27;1.30;;;16.50;99.90;;;;;;4993630;28;20285;-71
2023/10/27 02:25:30;;;;;;;4.20;1.47;;;17.00;99.90;;;;;;4993094;28;20209;-68
2023/10/27 02:27:57;;;;;;;5.90;1.10;;;18.20;99.90;;;;;;4992791;28;20772;-70
2023/10/27 02:30:24;;;;;;;2.53;1.10;;;19.60;99.90;;;;;;4993380;28;20182;-72
2023/10/27 02:32:52;;;;;;;4.43;1.27;;;19.70;99.90;;;;;;4992895;28;20277;-70
2023/10/27 02:35:20;;;;;;;6.10;1.63;;;19.40;99.90;;;;;;4993055;28;20182;-70
2023/10/27 02:37:47;;;;;;;2.23;0.93;;;19.20;99.90;;;;;;4993328;28;20182;-69
2023/10/27 02:40:14;;;;;;;5.40;1.20;;;19.30;99.90;;;;;;4993956;28;20187;-73
2023/10/27 02:42:42;;;;;;;8.37;1.73;;;19.80;99.90;;;;;;4993125;28;20216;-68
2023/10/27 02:45:09;;;;;;;8.00;1.73;;;20.20;99.90;;;;;;4992718;28;20187;-69
2023/10/27 02:47:37;;;;;;;3.17;1.20;;;20.40;99.90;;;;;;4991682;28;20241;-71
2023/10/27 02:50:08;;;;;;;4.30;1.23;;;20.30;99.90;;;;;;4992444;28;20679;-72
2023/10/27 02:52:35;;;;;;;5.30;1.63;;;20.90;99.90;;;;;;4992776;28;20192;-73
2023/10/27 02:55:03;;;;;;;5.67;1.70;;;21.60;99.90;;;;;;4993167;28;20182;-72
2023/10/27 02:57:30;;;;;;;5.83;1.30;;;21.30;99.90;;;;;;4992016;28;20196;-72
2023/10/27 02:59:57;;;;;;;5.97;1.30;;;20.50;99.90;;;;;;5009784;28;20200;-72
2023/10/27 03:02:25;;;;;;;9.37;1.60;;;20.20;99.90;;;;;;5008966;28;20221;-72
2023/10/27 03:04:54;;;;;;;5.03;1.47;;;20.00;99.90;;;;;;4992618;28;20187;-71
2023/10/27 03:07:22;;;;;;;5.10;1.23;;;19.80;99.90;;;;;;4992603;28;20231;-71
2023/10/27 03:09:49;;;;;;;8.60;1.43;;;19.90;99.90;;;;;;4992858;28;20287;-70
2023/10/27 03:12:16;;;;;;;5.53;1.80;;;19.70;99.90;;;;;;4993846;28;20241;-73
2023/10/27 03:14:44;;;;;;;6.60;1.37;;;19.70;99.90;;;;;;4998391;28;20186;-71
2023/10/27 03:17:11;;;;;;;6.90;1.67;;;20.10;99.90;;;;;;5000319;28;20233;-73
2023/10/27 03:19:39;;;;;;;4.17;1.37;;;20.40;99.90;;;;;;4993647;28;20179;-73
2023/10/27 03:22:06;;;;;;;4.80;1.40;;;20.20;99.90;;;;;;4993937;28;20575;-72
2023/10/27 03:24:33;;;;;;;2.77;1.20;;;20.00;99.90;;;;;;4994151;28;20178;-73
2023/10/27 03:27:01;;;;;;;5.90;1.07;;;20.50;99.90;;;;;;4993490;28;20181;-71
2023/10/27 03:29:28;;;;;;;3.70;0.97;;;21.00;99.90;;;;;;4992307;28;20194;-72
2023/10/27 03:31:56;;;;;;;4.40;1.10;;;21.40;99.90;;;;;;4993790;28;20607;-69
2023/10/27 03:34:23;;;;;;;3.37;1.13;;;21.30;99.90;;;;;;4992148;28;20189;-69
2023/10/27 03:36:50;;;;;;;6.80;1.60;;;20.70;99.90;;;;;;4993706;28;20188;-73
2023/10/27 03:39:17;;;;;;;9.83;2.07;;;20.00;99.90;;;;;;4993554;28;20209;-73
2023/10/27 03:41:45;;;;;;;5.77;1.50;;;19.50;99.90;;;;;;4993442;28;20257;-74
2023/10/27 03:44:12;;;;;;;7.30;1.73;;;19.60;99.90;;;;;;4992064;28;20181;-72
2023/10/27 03:46:39;;;;;;;3.17;1.40;;;19.70;99.90;;;;;;4992764;28;20659;-73
2023/10/27 03:49:07;;;;;;;6.87;1.50;;;20.30;99.90;;;;;;4992470;28;20552;-73
2023/10/27 03:51:35;;;;;;;6.67;1.63;;;21.10;99.90;;;;;;4993402;28;20186;-73
2023/10/27 03:54:02;;;;;;;8.47;1.30;;;20.80;99.90;;;;;;4993459;28;20229;-72
2023/10/27 03:56:31;;;;;;;9.87;1.80;;;19.70;99.90;;;;;;4993530;28;20181;-72
2023/10/27 03:58:59;;;;;;;6.07;1.80;;;19.70;99.90;;;;;;4963393;28;20190;-69
2023/10/27 04:01:27;;;;;;;5.53;1.93;;;20.20;99.90;;;;;;4990699;28;20218;-73
2023/10/27 04:03:55;;;;;;;7.17;2.07;;;20.50;99.90;;;;;;4991668;28;20190;-73
2023/10/27 04:06:23;;;;;;;3.33;1.50;;;20.20;99.90;;;;;;4991357;28;20194;-74
2023/10/27 04:08:50;;;;;;;5.70;1.60;;;19.80;99.90;;;;;;4991656;28;20191;-73
2023/10/27 04:11:17;;;;;;;5.97;1.50;;;19.30;99.90;;;;;;4991773;28;20183;-72
2023/10/27 04:13:44;;;;;;;5.83;1.73;;;18.90;99.90;;;;;;4991693;28;20746;-73
2023/10/27 04:16:12;;;;;;;5.07;1.43;;;18.60;99.90;;;;;;4991804;28;20663;-72
2023/10/27 04:18:39;;;;;;;5.03;1.10;;;19.10;99.90;;;;;;4995911;28;20187;-72
2023/10/27 04:21:06;;;;;;;6.80;1.30;;;19.60;99.90;;;;;;4995707;28;20211;-73
2023/10/27 04:23:34;;;;;;;4.07;1.33;;;20.20;99.90;;;;;;4995981;28;20273;-74
2023/10/27 04:26:01;;;;;;;3.30;1.10;;;20.40;99.90;;;;;;4995787;28;20186;-73
2023/10/27 04:28:28;;;;;;;4.33;1.20;;;20.70;99.90;;;;;;4995178;28;20192;-72
2023/10/27 04:34:18;;;;;;;5.03;1.30;;;20.00;99.90;;;;;;4986615;28;20257;-70
2023/10/27 04:36:45;;;;;;;3.87;1.30;;;20.00;99.90;;;;;;4995831;28;20186;-72
2023/10/27 04:39:12;;;;;;;5.73;1.60;;;20.10;99.90;;;;;;4995593;28;20186;-73
2023/10/27 04:41:39;;;;;;;7.63;1.63;;;19.70;99.90;;;;;;4995160;28;20253;-73
2023/10/27 04:44:08;;;;;;;7.03;1.73;;;19.70;99.90;;;;;;4995612;28;20551;-72
2023/10/27 04:46:35;;;;;;;5.53;1.40;;;19.40;99.90;;;;;;4995568;28;20200;-71
2023/10/27 04:49:04;;;;;;;2.97;1.07;;;19.40;99.90;;;;;;4995121;28;20179;-69
2023/10/27 04:51:31;;;;;;;5.47;1.63;;;19.30;99.90;;;;;;4995643;28;20190;-72
2023/10/27 04:53:58;;;;;;;4.83;1.63;;;18.80;99.90;;;;;;4995645;28;20228;-69
2023/10/27 04:56:26;;;;;;;3.63;1.40;;;18.70;99.90;;;;;;4995419;28;20186;-74
2023/10/27 04:58:53;;;;;;;4.97;1.97;;;18.70;99.90;;;;;;4995464;28;20219;-70
2023/10/27 05:01:24;;;;;;;6.80;1.53;;;18.80;99.90;;;;;;4995256;28;20206;-70
2023/10/27 05:03:52;;;;;;;5.20;1.30;;;18.80;99.90;;;;;;4994898;28;20192;-73
2023/10/27 05:06:19;;;;;;;5.50;1.10;;;18.80;99.90;;;;;;4994663;28;20604;-72
2023/10/27 05:08:46;;;;;;;6.83;1.17;;;18.80;99.90;;;;;;5014623;28;20267;-73
2023/10/27 05:11:14;;;;;;;8.20;1.20;;;18.60;99.90;;;;;;5007811;28;20179;-71
2023/10/27 05:13:41;;;;;;;2.50;0.90;;;18.90;99.90;;;;;;4995067;28;20512;-73
2023/10/27 05:16:09;;;;;;;5.07;1.17;;;19.10;99.90;;;;;;4995097;28;20179;-72
2023/10/27 05:18:36;;;;;;;3.50;0.90;;;19.30;99.90;;;;;;4994628;28;20211;-72
2023/10/27 05:21:04;;;;;;;4.17;1.20;;;19.60;99.90;;;;;;4994655;28;20210;-73
2023/10/27 05:23:31;;;;;;;5.20;1.07;;;20.00;99.90;;;;;;4993549;28;20182;-74
2023/10/27 05:25:58;;;;;;;5.07;1.10;;;20.50;99.90;;;;;;4994475;28;20175;-72
2023/10/27 05:28:26;;;;;;;5.83;1.30;;;20.60;99.90;;;;;;4993121;28;20189;-73
2023/10/27 05:30:54;;;;;;;4.77;1.10;;;20.80;99.90;;;;;;4994400;28;20569;-73
2023/10/27 05:33:21;;;;;;;5.27;1.63;;;20.40;99.90;;;;;;4994124;28;20919;-72
2023/10/27 05:35:48;;;;;;;5.13;1.53;;;19.80;99.90;;;;;;4994817;28;20183;-73
2023/10/27 05:38:18;;;;;;;5.50;1.43;;;19.20;99.90;;;;;;4994642;28;20215;-73
2023/10/27 05:40:45;;;;;;;4.57;1.53;;;19.00;99.90;;;;;;4993525;28;20703;-68
2023/10/27 05:43:16;;;;;;;5.60;1.50;;;19.20;99.90;;;;;;4994707;28;20377;-70
2023/10/27 05:45:44;;;;;;;4.27;1.57;;;19.90;99.90;;;;;;4994993;28;20182;-72
2023/10/27 05:48:11;;;;;;;3.93;1.43;;;19.50;99.90;;;;;;4990452;28;20182;-73
2023/10/27 05:50:38;;;;;;;3.20;1.33;;;19.30;99.90;;;;;;4994526;28;20175;-69
2023/10/27 05:53:06;;;;;;;6.73;1.63;;;19.00;99.90;;;;;;5007065;28;20185;-71
2023/10/27 05:55:33;;;;;;;6.13;1.30;;;19.00;99.90;;;;;;5013333;28;20178;-73
2023/10/27 05:58:00;;;;;;;7.53;1.23;;;18.90;99.90;;;;;;4974942;28;20179;-74
2023/10/27 06:00:29;;;;;;;7.03;1.27;;;18.80;99.90;;;;;;4992237;28;20233;-70
2023/10/27 06:02:56;;;;;;;2.63;1.37;;;18.70;99.90;;;;;;4993763;28;20229;-71
2023/10/27 06:05:24;;;;;;;5.50;1.13;;;18.20;99.90;;;;;;4994468;28;20218;-73
2023/10/27 06:07:52;;;;;;;3.73;1.20;;;17.90;99.90;;;;;;4993943;28;20178;-68
2023/10/27 06:10:19;;;;;;;4.17;1.40;;;17.60;99.90;;;;;;4993354;28;20182;-68
2023/10/27 06:12:46;;;;;;;4.60;1.30;;;17.20;99.90;;;;;;4993709;28;20171;-68
2023/10/27 06:15:14;;;;;;;3.80;1.10;;;16.90;99.90;;;;;;4993889;28;20592;-69
2023/10/27 06:17:41;;;;;;;5.53;1.93;;;16.80;99.90;;;;;;4993246;28;20170;-70
2023/10/27 06:20:09;;;;;;;7.37;1.73;;;16.70;99.90;;;;;;4993846;28;20175;-69
2023/10/27 06:22:36;;;;;;;5.67;1.60;;;16.60;99.90;;;;;;4993616;28;20215;-71
2023/10/27 06:25:04;;;;;;;7.73;1.77;;;16.50;99.90;;;;;;4993306;28;20587;-69
2023/10/27 06:27:31;;;;;;;5.20;1.33;;;16.50;99.90;;;;;;4993451;28;20615;-68
2023/10/27 06:29:58;;;;;;;5.03;1.30;;;16.60;99.90;;;;;;4993723;28;20298;-69
2023/10/27 06:32:25;;;;;;;4.87;1.50;;;16.70;99.90;;;;;;4993033;28;20182;-68
2023/10/27 06:34:53;;;;;;;7.37;1.60;;;16.80;99.90;;;;;;4993281;28;20230;-68
2023/10/27 06:37:20;;;;;;;6.30;1.53;;;17.10;99.90;;;;;;4993482;28;20183;-69
2023/10/27 06:39:50;;;;;;;11.70;1.40;;;17.50;99.90;;;;;;4992595;28;20189;-73
2023/10/27 06:42:17;;;;;;;4.03;1.13;;;17.80;99.90;;;;;;4992809;28;20225;-68
2023/10/27 06:44:45;;;;;;;4.37;1.33;;;17.60;99.90;;;;;;4993434;28;20175;-70
2023/10/27 06:47:18;;;;;;;7.73;2.10;;;17.70;99.90;;;;;;4993091;28;20667;-69
2023/10/27 06:49:46;;;;;;;6.13;1.40;;;17.80;99.90;;;;;;4993461;28;20189;-69
2023/10/27 06:52:14;;;;;;;4.87;1.27;;;17.70;99.90;;;;;;4995852;28;20175;-69
2023/10/27 06:54:41;;;;;;;3.27;1.10;;;17.70;99.90;;;;;;4971733;28;20190;-68
2023/10/27 06:57:10;;;;;;;5.07;1.70;;;17.60;99.90;;;;;;4992755;28;20542;-69
2023/10/27 06:59:38;;;;;;;7.63;1.70;;;17.60;99.90;;;;;;5007937;28;20182;-70
2023/10/27 07:02:05;;;;;;;7.93;1.77;;;17.50;99.90;;;;;;5012108;28;20220;-71
2023/10/27 07:04:32;;;;;;;4.13;1.43;;;17.50;99.90;;;;;;5013031;28;20178;-69
2023/10/27 07:06:59;;;;;;;5.93;1.37;;;17.50;99.90;;;;;;5005134;28;20675;-69
2023/10/27 07:09:27;;;;;;;6.63;1.37;;;17.50;99.90;;;;;;4992043;28;20178;-70
2023/10/27 07:11:54;;;;;;;7.53;1.40;;;17.40;99.90;;;;;;4992847;28;20182;-72
2023/10/27 07:14:22;;;;;;;7.30;1.67;;;17.20;99.90;;;;;;4992706;28;20627;-69
2023/10/27 07:16:51;;;;;;;5.80;1.73;;;17.10;99.90;;;;;;4992040;28;20218;-69
2023/10/27 07:19:19;;;;;;;12.90;2.37;;;16.90;99.90;;;;;;4973485;28;20269;-73
2023/10/27 07:21:47;;;;;;;15.17;2.50;;;16.70;99.90;;;;;;4973477;28;20632;-71
2023/10/27 07:24:14;;;;;;;10.23;1.90;;;16.40;99.90;;;;;;4996427;28;20190;-72
2023/10/27 07:26:42;;;;;;;8.57;2.27;;;16.10;99.90;;;;;;4991364;28;20612;-74
2023/10/27 07:34:30;;;;;;;9.43;2.77;;;15.40;99.90;;;;;;4996690;28;20588;-70
2023/10/27 07:36:58;;;;;;;8.43;1.60;;;15.30;99.90;;;;;;4992586;28;20197;-69
2023/10/27 07:39:25;;;;;;;9.33;1.70;;;15.20;99.90;;;;;;4992694;28;20281;-72
2023/10/27 07:41:53;;;;;;;6.03;1.20;;;15.10;99.90;;;;;;4992362;28;20218;-70
2023/10/27 07:44:20;;;;;;;8.93;1.70;;;15.10;99.90;;;;;;4992806;28;20671;-75
2023/10/27 07:46:48;;;;;;;6.60;1.77;;;15.20;99.90;;;;;;5007821;28;20231;-72
2023/10/27 07:49:15;;;;;;;7.53;1.70;;;15.10;99.90;;;;;;4992149;28;20183;-74
2023/10/27 07:51:42;;;;;;;7.70;2.10;;;15.10;99.90;;;;;;4993286;28;20573;-72
2023/10/27 07:54:09;;;;;;;9.70;2.40;;;15.10;99.90;;;;;;4996536;28;20178;-72
2023/10/27 07:56:37;;;;;;;8.07;2.13;;;15.00;99.90;;;;;;4996045;28;20261;-71
2023/10/27 07:59:04;;;;;;;11.87;1.63;;;15.10;99.90;;;;;;4994672;28;20182;-72
2023/10/27 08:01:32;;;;;;;12.37;2.00;;;15.00;99.90;;;;;;4996331;28;20233;-72
2023/10/27 08:03:59;;;;;;;5.93;1.90;;;15.00;99.90;;;;;;4996054;28;20286;-73
2023/10/27 08:06:26;;;;;;;6.27;1.60;;;14.90;99.90;;;;;;4996486;28;20225;-74
2023/10/27 08:08:54;;;;;;;9.07;2.03;;;14.90;99.90;;;;;;4995869;28;20285;-73
2023/10/27 08:11:21;;;;;;;10.23;1.90;;;15.00;99.90;;;;;;4996171;28;20619;-72
2023/10/27 08:13:48;;;;;;;9.50;1.87;;;14.90;99.90;;;;;;4996643;28;20245;-71
2023/10/27 08:16:17;;;;;;;7.27;2.27;;;14.90;99.90;;;;;;4996857;28;20178;-72
2023/10/27 08:18:45;;;;;;;10.30;2.10;;;14.90;99.90;;;;;;4995892;28;20175;-73
2023/10/27 08:21:12;;;;;;;8.67;1.87;;;14.90;99.90;;;;;;4996337;28;20218;-74
2023/10/27 08:23:40;;;;;;;12.00;2.03;;;14.80;99.90;;;;;;4996372;28;20174;-73
2023/10/27 08:26:09;;;;;;;7.60;1.77;;;14.80;99.90;;;;;;4995753;28;20182;-72
2023/10/27 08:28:36;;;;;;;10.17;1.80;;;14.80;99.90;;;;;;4995606;28;20179;-73
2023/10/27 08:31:04;;;;;;;8.37;1.83;;;14.80;99.90;;;;;;4976593;28;20191;-71
2023/10/27 08:33:31;;;;;;;9.30;1.80;;;14.80;99.90;;;;;;4975824;28;20573;-71
2023/10/27 08:36:06;;;;;;;8.00;1.73;;;14.70;99.90;;;;;;4976530;28;20177;-71
2023/10/27 08:38:33;;;;;;;7.57;1.73;;;14.70;99.90;;;;;;4989565;28;20194;-73
2023/10/27 08:41:01;;;;;;;7.37;2.17;;;14.70;99.90;;;;;;4995098;28;20210;-70
2023/10/27 08:43:29;;;;;;;6.77;1.70;;;14.80;99.90;;;;;;4995986;28;20217;-72
2023/10/27 08:45:56;;;;;;;10.27;1.57;;;14.70;99.90;;;;;;4995852;28;20636;-72
2023/10/27 08:48:24;;;;;;;9.83;1.80;;;14.70;99.90;;;;;;4995202;28;20186;-74
2023/10/27 08:50:52;;;;;;;6.83;1.57;;;14.70;99.90;;;;;;4995716;28;20167;-75
2023/10/27 08:53:19;;;;;;;8.53;1.60;;;14.60;99.90;;;;;;4995540;28;20257;-70
2023/10/27 08:55:49;;;;;;;8.43;2.00;;;14.60;99.90;;;;;;4994595;28;20191;-72
2023/10/27 08:58:19;;;;;;;5.23;1.47;;;14.50;99.90;;;;;;4995896;28;20204;-71
2023/10/27 09:00:49;;;;;;;6.97;1.90;;;14.50;99.90;;;;;;4995158;28;20237;-72
2023/10/27 09:03:20;;;;;;;6.20;1.20;;;14.50;99.90;;;;;;4994124;28;20241;-71
2023/10/27 09:05:47;;;;;;;10.10;1.70;;;14.40;99.90;;;;;;4994316;28;20198;-74
2023/10/27 09:08:14;;;;;;;5.40;1.80;;;14.30;99.90;;;;;;4995672;28;20181;-75
2023/10/27 09:10:45;;;;;;;3.60;1.40;;;14.30;99.90;;;;;;4996305;28;20197;-72
2023/10/27 09:13:12;;;;;;;6.33;1.63;;;14.40;99.90;;;;;;4996336;28;20190;-73
2023/10/27 09:15:49;;;;;;;4.10;1.17;;;14.30;99.90;;;;;;4996254;28;20181;-73
2023/10/27 09:18:17;;;;;;;4.73;1.87;;;14.40;99.90;;;;;;4996261;28;20565;-74
2023/10/27 09:20:52;;;;;;;8.90;1.70;;;14.40;99.90;;;;;;4996448;28;20177;-72
2023/10/27 09:23:22;;;;;;;5.70;1.83;;;14.40;99.90;;;;;;4996373;28;20672;-72
2023/10/27 09:25:49;;;;;;;8.37;1.43;;;14.40;99.90;;;;;;4995921;28;20194;-74
2023/10/27 09:28:31;;;;;;;7.07;1.60;;;14.30;99.90;;;;;;4996097;28;20679;-71
2023/10/27 09:30:58;;;;;;;4.87;1.30;;;14.30;99.90;;;;;;4996086;28;20689;-73
2023/10/27 09:33:26;;;;;;;7.17;1.27;;;14.30;99.90;;;;;;4995873;28;20226;-72
2023/10/27 09:35:55;;;;;;;5.33;1.43;;;14.20;99.90;;;;;;4996493;28;20201;-71
2023/10/27 09:38:23;;;;;;;6.27;1.43;;;14.20;99.90;;;;;;4994793;28;20194;-69
2023/10/27 09:40:52;;;;;;;4.13;1.60;;;14.10;99.90;;;;;;4996064;28;20679;-70
2023/10/27 09:43:26;;;;;;;8.70;1.50;;;13.90;99.90;;;;;;4995925;28;20254;-71
2023/10/27 09:46:02;;;;;;;6.23;1.67;;;13.90;99.90;;;;;;4996039;28;20575;-71
2023/10/27 09:48:32;;;;;;;5.47;1.70;;;13.80;99.90;;;;;;4996068;28;20182;-72
2023/10/27 09:51:12;;;;;;;5.10;2.07;;;13.70;99.90;;;;;;4995968;28;20170;-70
2023/10/27 09:53:41;;;;;;;6.97;1.40;;;13.60;99.90;;;;;;4995774;28;20266;-70
2023/10/27 09:56:09;;;;;;;5.57;1.80;;;13.50;99.90;;;;;;4995486;28;20644;-70
2023/10/27 09:58:38;;;;;;;5.23;1.73;;;13.50;99.90;;;;;;4995711;28;20534;-69
2023/10/27 10:01:06;;;;;;;7.97;1.73;;;13.40;99.90;;;;;;4995825;28;20210;-71
2023/10/27 10:03:33;;;;;;;6.57;1.57;;;13.40;99.90;;;;;;4995439;28;20191;-71
2023/10/27 10:06:18;;;;;;;6.07;1.80;;;13.40;99.90;;;;;;4994803;28;20631;-71
2023/10/27 10:09:11;;;;;;;6.10;1.73;;;13.40;99.90;;;;;;4995369;28;20212;-72
2023/10/27 10:11:48;;;;;;;6.90;1.43;;;13.40;99.90;;;;;;4995383;28;20194;-70
2023/10/27 10:14:43;;;;;;;7.73;2.00;;;13.40;99.90;;;;;;4995297;28;20195;-70
2023/10/27 10:17:11;;;;;;;8.30;2.17;;;13.40;99.90;;;;;;4995187;28;20184;-73
2023/10/27 10:19:51;;;;;;;5.10;1.73;;;13.40;99.90;;;;;;4995141;28;20651;-71
2023/10/27 10:22:40;;;;;;;7.60;1.80;;;13.40;99.90;;;;;;4993987;28;20679;-71
2023/10/27 10:25:19;;;;;;;9.87;2.07;;;13.40;99.90;;;;;;4995074;28;20205;-70
2023/10/27 10:28:08;;;;;;;9.97;2.10;;;13.40;99.90;;;;;;4993674;28;20182;-71
2023/10/27 10:30:40;;;;;;;4.53;1.40;;;13.40;99.90;;;;;;4995080;28;20185;-70
2023/10/27 10:33:28;;;;;;;7.50;1.50;;;13.40;99.90;;;;;;4994620;28;20282;-71
2023/10/27 10:36:18;;;;;;;6.03;2.07;;;13.40;99.90;;;;;;4994996;28;20209;-70
2023/10/27 10:38:52;;;;;;;7.67;1.80;;;13.40;99.90;;;;;;4994686;28;20186;-72
2023/10/27 10:41:19;;;;;;;5.97;1.70;;;13.40;99.90;;;;;;4994526;28;20209;-71
2023/10/27 10:44:16;;;;;;;5.50;1.70;;;13.50;99.90;;;;;;4994774;28;20186;-70
2023/10/27 10:46:45;;;;;;;5.70;1.50;;;13.50;99.90;;;;;;4993411;28;20181;-71
2023/10/27 10:49:28;;;;;;;8.77;2.00;;;13.50;99.90;;;;;;4993301;28;20403;-71
2023/10/27 10:51:57;;;;;;;9.30;1.80;;;13.50;99.90;;;;;;4994641;28;20196;-72
2023/10/27 10:54:31;;;;;;;8.97;1.83;;;13.40;99.90;;;;;;4994333;28;20650;-72
2023/10/27 10:57:09;;;;;;;5.57;1.60;;;13.30;99.90;;;;;;4994421;28;20186;-72
2023/10/27 10:59:37;;;;;;;8.03;1.60;;;13.30;99.90;;;;;;4994464;28;20182;-74
2023/10/27 11:02:05;;;;;;;8.03;1.50;;;13.30;99.90;;;;;;4994415;28;20221;-74
2023/10/27 11:04:34;;;;;;;4.13;1.60;;;13.20;99.90;;;;;;4994146;28;20182;-72
2023/10/27 11:07:03;;;;;;;4.03;1.20;;;13.20;99.90;;;;;;4993559;28;20192;-73
2023/10/27 11:09:32;;;;;;;7.23;1.33;;;13.20;99.90;;;;;;4994190;28;20173;-72
2023/10/27 11:12:03;;;;;;;5.70;1.77;;;13.10;99.90;;;;;;4994133;28;20280;-72
2023/10/27 11:14:40;;;;;;;6.47;1.60;;;13.10;99.90;;;;;;4989791;28;20177;-71
2023/10/27 11:17:11;;;;;;;6.63;1.10;;;13.10;99.90;;;;;;4979076;28;20225;-73
2023/10/27 11:19:55;;;;;;;4.23;1.60;;;13.10;99.90;;;;;;4992112;28;20189;-73
2023/10/27 11:22:27;;;;;;;7.27;1.43;;;13.10;99.90;;;;;;5007633;28;20684;-73
2023/10/27 11:24:54;;;;;;;5.43;1.50;;;13.00;99.90;;;;;;4991748;28;20639;-74
2023/10/27 11:27:26;;;;;;;6.03;1.40;;;13.00;99.90;;;;;;4991783;28;20185;-72
2023/10/27 11:30:04;;;;;;;7.03;1.50;;;13.00;99.90;;;;;;4992626;28;20185;-71
2023/10/27 11:32:31;;;;;;;12.47;2.10;;;13.00;99.90;;;;;;4988193;28;20194;-73
2023/10/27 11:34:59;;;;;;;4.73;1.20;;;13.00;99.90;;;;;;4992907;28;20549;-73
2023/10/27 11:37:29;;;;;;;8.50;1.60;;;13.00;99.90;;;;;;4992708;28;20666;-72
2023/10/27 11:39:57;;;;;;;3.33;1.57;;;13.00;99.90;;;;;;4991924;28;20195;-72
2023/10/27 11:42:24;;;;;;;8.23;1.53;;;13.00;99.90;;;;;;4992159;28;20228;-70
2023/10/27 11:44:51;;;;;;;4.50;1.70;;;13.00;99.90;;;;;;4991464;28;20533;-71
2023/10/27 11:47:20;;;;;;;7.73;1.80;;;13.00;99.90;;;;;;4992289;28;20655;-70
2023/10/27 11:49:47;;;;;;;3.80;1.57;;;13.00;99.90;;;;;;4992614;28;20638;-69
2023/10/27 11:52:14;;;;;;;3.53;1.50;;;13.00;99.90;;;;;;4992091;28;20208;-70
2023/10/27 11:54:42;;;;;;;5.43;1.67;;;13.00;99.90;;;;;;4992098;28;20641;-72
2023/10/27 11:57:09;;;;;;;6.57;1.30;;;13.00;99.90;;;;;;4992559;28;20186;-72
2023/10/27 11:59:37;;;;;;;3.53;1.33;;;13.00;99.90;;;;;;4992209;28;20189;-74
2023/10/27 12:02:04;;;;;;;6.00;1.67;;;13.00;99.90;;;;;;4991727;28;20262;-73
2023/10/27 12:04:31;;;;;;;5.93;1.70;;;12.90;99.90;;;;;;4992632;28;20177;-72
2023/10/27 12:06:59;;;;;;;8.13;1.80;;;12.90;99.90;;;;;;4992519;28;20220;-72
2023/10/27 12:09:26;;;;;;;8.73;1.93;;;12.90;99.90;;;;;;4991918;28;20185;-74
2023/10/27 12:11:53;;;;;;;3.97;1.37;;;12.80;99.90;;;;;;4992307;28;20678;-74
2023/10/27 12:14:22;;;;;;;3.93;1.57;;;12.80;99.90;;;;;;4992320;28;20650;-71
2023/10/27 12:16:51;;;;;;;3.27;1.27;;;12.70;99.90;;;;;;4991918;28;20198;-73
2023/10/27 12:19:18;;;;;;;5.63;1.73;;;12.70;99.90;;;;;;4992283;28;20604;-72
2023/10/27 12:21:46;;;;;;;5.30;1.03;;;12.70;99.90;;;;;;4992020;28;20301;-72
2023/10/27 12:24:15;;;;;;;7.60;1.77;;;12.80;99.90;;;;;;4990670;28;20651;-73
2023/10/27 12:26:44;;;;;;;5.77;1.67;;;12.80;99.90;;;;;;4992144;28;20202;-73
2023/10/27 12:29:11;;;;;;;3.27;1.10;;;12.80;99.90;;;;;;4992258;28;20589;-72
2023/10/27 12:31:39;;;;;;;4.93;1.67;;;12.80;99.90;;;;;;4991640;28;20189;-72
2023/10/27 12:34:11;;;;;;;4.27;1.07;;;12.80;99.90;;;;;;4991862;28;20235;-70
2023/10/27 12:36:38;;;;;;;4.93;1.60;;;12.80;99.90;;;;;;4992179;28;20197;-73
2023/10/27 12:39:07;;;;;;;6.87;1.60;;;12.80;99.90;;;;;;4992653;28;20192;-71
2023/10/27 12:41:35;;;;;;;5.43;1.40;;;12.80;99.90;;;;;;4995301;28;20673;-72
2023/10/27 12:44:03;;;;;;;6.30;1.57;;;12.70;99.90;;;;;;4995896;28;20716;-71
2023/10/27 12:46:30;;;;;;;3.57;1.33;;;12.70;99.90;;;;;;4995404;28;20295;-71
2023/10/27 12:48:57;;;;;;;7.93;1.60;;;12.70;99.90;;;;;;4995167;28;20191;-73
2023/10/27 12:51:25;;;;;;;5.00;1.90;;;12.60;99.90;;;;;;4995481;28;20186;-71
2023/10/27 12:53:54;;;;;;;5.93;1.70;;;12.60;99.90;;;;;;4994681;28;20219;-71
2023/10/27 12:56:21;;;;;;;10.80;1.53;;;12.60;99.90;;;;;;4995569;28;20706;-72
2023/10/27 12:58:49;;;;;;;4.57;1.80;;;12.60;99.90;;;;;;4995523;28;20639;-71
2023/10/27 13:01:17;;;;;;;3.70;1.77;;;12.50;99.90;;;;;;4994508;28;20700;-72
2023/10/27 13:03:44;;;;;;;6.17;1.70;;;12.50;99.90;;;;;;4995309;28;20595;-72
2023/10/27 13:06:15;;;;;;;5.00;1.67;;;12.50;99.90;;;;;;4995336;28;20208;-71
2023/10/27 13:08:42;;;;;;;7.17;1.60;;;12.50;99.90;;;;;;4994943;28;20181;-73
2023/10/27 13:11:10;;;;;;;5.47;1.40;;;12.60;99.90;;;;;;4994850;28;20219;-70
2023/10/27 13:13:37;;;;;;;5.83;1.63;;;12.50;99.90;;;;;;4995048;28;20198;-70
2023/10/27 13:16:12;;;;;;;7.57;1.70;;;12.50;99.90;;;;;;4994738;28;20260;-72
2023/10/27 13:18:39;;;;;;;4.77;1.43;;;12.50;99.90;;;;;;4995274;28;20182;-71